Terminal Aerodrome Forecast
Issued by NWS Austin/San Antonio, TX

Home | Current Version | Previous Version | Text Only | Print | Product List | Glossary On
Versions: 1 2 3 4 5 6 7 8 9 10 11 12
000
FTUS44 KEWX 031732
TAFAUS
TAF
KAUS 031732Z 0318/0424 16007KT P6SM FEW070 FEW250
     FM040800 17003KT P6SM SCT025
     FM041600 18011KT P6SM FEW060 SCT250=

USA.gov is the U.S. government's official web portal to all federal, state and local government web resources and services.